createdAt,value
2017-07-17T00:00:09.094Z,15.90
2017-07-17T00:02:35.113Z,15.90
2017-07-17T00:05:01.167Z,16.00
2017-07-17T00:07:27.205Z,16.00
2017-07-17T00:09:53.961Z,16.00
2017-07-17T00:12:19.974Z,16.00
2017-07-17T00:14:46.054Z,16.00
2017-07-17T00:17:12.813Z,16.10
2017-07-17T00:19:38.835Z,16.10
2017-07-17T00:22:04.840Z,16.00
2017-07-17T00:24:30.858Z,16.00
2017-07-17T00:27:03.889Z,15.90
2017-07-17T00:29:29.910Z,15.90
2017-07-17T00:31:55.954Z,15.90
2017-07-17T00:34:21.973Z,15.90
2017-07-17T00:36:48.007Z,15.90
2017-07-17T00:39:14.036Z,15.90
2017-07-17T00:41:40.042Z,15.90
2017-07-17T00:44:06.058Z,15.80
2017-07-17T00:46:32.067Z,15.80
2017-07-17T00:48:58.085Z,15.80
2017-07-17T00:51:24.122Z,15.80
2017-07-17T00:53:50.129Z,15.80
2017-07-17T00:56:16.148Z,15.70
2017-07-17T00:58:42.163Z,15.70
2017-07-17T01:01:08.161Z,15.60
2017-07-17T01:03:34.190Z,15.70
2017-07-17T01:06:00.225Z,15.70
2017-07-17T01:08:26.275Z,15.70
2017-07-17T01:10:52.290Z,15.70
2017-07-17T01:13:18.338Z,15.70
2017-07-17T01:15:44.356Z,15.70
2017-07-17T01:18:10.404Z,15.60
2017-07-17T01:20:36.410Z,15.70
2017-07-17T01:23:02.418Z,15.60
2017-07-17T01:25:28.439Z,15.50
2017-07-17T01:27:54.447Z,15.50
2017-07-17T01:30:20.471Z,15.50
2017-07-17T01:32:47.246Z,15.40
2017-07-17T01:35:13.284Z,15.40
2017-07-17T01:37:39.298Z,15.40
2017-07-17T01:40:05.350Z,15.30
2017-07-17T01:42:31.402Z,15.30
2017-07-17T01:44:57.434Z,15.30
2017-07-17T01:47:23.469Z,15.30
2017-07-17T01:49:49.498Z,15.30
2017-07-17T01:52:15.527Z,15.20
2017-07-17T01:54:41.546Z,15.20
2017-07-17T01:57:07.561Z,15.20
2017-07-17T01:59:33.587Z,15.10
2017-07-17T02:02:00.353Z,15.10
2017-07-17T02:04:26.389Z,15.10
2017-07-17T02:06:52.446Z,15.00
2017-07-17T02:09:18.463Z,15.00
2017-07-17T02:11:44.491Z,15.10
2017-07-17T02:14:10.538Z,15.00
2017-07-17T02:16:36.566Z,15.00
2017-07-17T02:19:02.569Z,15.00
2017-07-17T02:21:28.612Z,14.90
2017-07-17T02:23:54.661Z,14.90
2017-07-17T02:26:20.673Z,14.90
2017-07-17T02:28:46.710Z,14.90
2017-07-17T02:31:13.501Z,14.90
2017-07-17T02:33:39.523Z,14.90
2017-07-17T02:36:05.532Z,14.90
2017-07-17T02:38:31.551Z,14.80
2017-07-17T02:40:57.553Z,14.80
2017-07-17T02:43:23.594Z,14.70
2017-07-17T02:45:49.614Z,14.70
2017-07-17T02:48:15.642Z,14.70
2017-07-17T02:50:41.659Z,14.70
2017-07-17T02:53:07.713Z,14.70
2017-07-17T02:55:34.458Z,14.60
2017-07-17T02:58:01.209Z,14.70
2017-07-17T03:00:27.249Z,14.60
2017-07-17T03:02:53.265Z,14.70
2017-07-17T03:05:19.290Z,14.70
2017-07-17T03:07:46.060Z,14.80
2017-07-17T03:10:12.110Z,14.80
2017-07-17T03:12:38.162Z,14.80
2017-07-17T03:15:04.225Z,14.80
2017-07-17T03:17:30.249Z,14.80
2017-07-17T03:19:56.295Z,14.80
2017-07-17T03:22:22.366Z,14.80
2017-07-17T03:24:48.402Z,14.70
2017-07-17T03:27:14.435Z,14.80
2017-07-17T03:29:40.504Z,14.80
2017-07-17T03:32:06.537Z,14.70
2017-07-17T03:34:32.570Z,14.70
2017-07-17T03:36:58.601Z,14.60
2017-07-17T03:39:24.614Z,14.60
2017-07-17T03:41:50.645Z,14.50
2017-07-17T03:44:17.406Z,14.50
2017-07-17T03:46:43.429Z,14.50
2017-07-17T03:49:09.465Z,14.60
2017-07-17T03:51:35.499Z,14.60
2017-07-17T03:54:02.274Z,14.60
2017-07-17T03:56:28.322Z,14.60
2017-07-17T03:58:54.346Z,14.60
2017-07-17T04:01:20.369Z,14.50
2017-07-17T04:03:46.422Z,14.50
2017-07-17T04:06:12.457Z,14.40
2017-07-17T04:08:39.246Z,14.50
2017-07-17T04:11:05.278Z,14.40
2017-07-17T04:13:31.318Z,14.40
2017-07-17T04:15:57.403Z,14.40
2017-07-17T04:18:23.477Z,14.40
2017-07-17T04:20:49.513Z,14.50
2017-07-17T04:23:15.559Z,14.40
2017-07-17T04:25:41.622Z,14.40
2017-07-17T04:28:07.657Z,14.40
2017-07-17T04:30:34.498Z,14.50
2017-07-17T04:33:00.610Z,14.50
2017-07-17T04:35:26.718Z,14.40
2017-07-17T04:37:52.762Z,14.40
2017-07-17T04:40:18.795Z,14.50
2017-07-17T04:42:44.849Z,14.50
2017-07-17T04:45:10.905Z,14.50
2017-07-17T04:47:36.965Z,14.50
2017-07-17T04:50:03.018Z,14.50
2017-07-17T04:52:29.069Z,14.60
2017-07-17T04:54:55.836Z,14.60
2017-07-17T04:57:21.874Z,14.60
2017-07-17T04:59:47.893Z,14.70
2017-07-17T05:02:13.927Z,14.70
2017-07-17T05:04:39.946Z,14.70
2017-07-17T05:07:05.986Z,14.80
2017-07-17T05:09:32.030Z,14.80
2017-07-17T05:11:58.094Z,14.90
2017-07-17T05:14:24.137Z,15.00
2017-07-17T05:16:50.153Z,15.00
2017-07-17T05:19:16.190Z,15.00
2017-07-17T05:21:42.206Z,15.00
2017-07-17T05:24:08.274Z,15.00
2017-07-17T05:26:49.267Z,15.00
2017-07-17T05:29:15.327Z,15.10
2017-07-17T05:31:41.358Z,15.10
2017-07-17T05:34:07.404Z,15.20
2017-07-17T05:36:33.465Z,15.30
2017-07-17T05:38:59.487Z,15.30
2017-07-17T05:41:25.518Z,15.40
2017-07-17T05:43:52.362Z,15.40
2017-07-17T05:46:18.463Z,15.40
2017-07-17T05:48:44.595Z,15.50
2017-07-17T05:51:10.735Z,15.50
2017-07-17T05:53:36.807Z,15.50
2017-07-17T05:56:02.842Z,15.60
2017-07-17T05:58:28.873Z,15.60
2017-07-17T06:00:54.981Z,15.70
2017-07-17T06:03:21.248Z,15.80
2017-07-17T06:05:47.343Z,15.90
2017-07-17T06:08:13.370Z,15.90
2017-07-17T06:10:39.452Z,16.10
2017-07-17T06:13:06.229Z,16.30
2017-07-17T06:15:32.266Z,16.20
2017-07-17T06:17:58.330Z,16.30
2017-07-17T06:20:24.434Z,16.40
2017-07-17T06:22:50.553Z,16.60
2017-07-17T06:25:16.589Z,16.70
2017-07-17T06:27:42.629Z,16.90
2017-07-17T06:30:09.412Z,17.10
2017-07-17T06:32:35.456Z,17.10
2017-07-17T06:35:01.562Z,17.10
2017-07-17T06:37:27.630Z,17.10
2017-07-17T06:39:53.649Z,17.20
2017-07-17T06:42:19.693Z,17.20
2017-07-17T06:44:53.506Z,17.20
2017-07-17T06:47:19.555Z,17.20
2017-07-17T06:49:45.582Z,17.20
2017-07-17T06:52:11.637Z,17.30
2017-07-17T06:54:37.674Z,17.50
2017-07-17T06:57:03.701Z,17.50
2017-07-17T06:59:29.735Z,17.60
2017-07-17T07:01:55.798Z,17.60
2017-07-17T07:04:21.847Z,17.60
2017-07-17T07:06:47.894Z,17.70
2017-07-17T07:09:13.929Z,17.70
2017-07-17T07:11:39.946Z,17.80
2017-07-17T07:14:05.957Z,17.80
2017-07-17T07:16:31.973Z,18.00
2017-07-17T07:18:57.989Z,18.10
2017-07-17T07:21:24.001Z,18.20
2017-07-17T07:23:50.019Z,18.30
2017-07-17T07:26:16.046Z,18.30
2017-07-17T07:28:42.794Z,18.30
2017-07-17T07:31:08.803Z,18.30
2017-07-17T07:33:34.818Z,18.40
2017-07-17T07:36:00.824Z,18.50
2017-07-17T07:38:26.838Z,18.60
2017-07-17T07:40:52.867Z,18.80
2017-07-17T07:43:18.911Z,19.00
2017-07-17T07:45:45.675Z,19.10
2017-07-17T07:48:11.725Z,19.10
2017-07-17T07:50:37.734Z,19.10
2017-07-17T07:53:03.754Z,19.10
2017-07-17T07:55:29.762Z,19.20
2017-07-17T07:57:55.761Z,19.20
2017-07-17T08:00:21.773Z,19.30
2017-07-17T08:02:47.778Z,19.40
2017-07-17T08:05:13.799Z,19.50
2017-07-17T08:07:39.809Z,19.60
2017-07-17T08:10:05.833Z,19.80
2017-07-17T08:12:32.650Z,20.10
2017-07-17T08:14:59.443Z,20.00
2017-07-17T08:17:25.515Z,20.00
2017-07-17T08:19:58.650Z,20.00
2017-07-17T08:22:24.682Z,20.00
2017-07-17T08:24:50.703Z,20.00
2017-07-17T08:27:16.729Z,20.20
2017-07-17T08:29:42.770Z,20.30
2017-07-17T08:32:08.822Z,20.40
2017-07-17T08:34:34.837Z,20.60
2017-07-17T08:37:00.876Z,20.70
2017-07-17T08:39:26.928Z,20.60
2017-07-17T08:41:53.725Z,20.40
2017-07-17T08:44:19.784Z,20.40
2017-07-17T08:46:45.866Z,20.30
2017-07-17T08:49:12.638Z,20.50
2017-07-17T08:51:38.698Z,20.50
2017-07-17T08:54:04.738Z,20.90
2017-07-17T08:56:30.778Z,21.10
2017-07-17T08:58:56.814Z,21.20
2017-07-17T09:01:22.843Z,21.30
2017-07-17T09:03:48.903Z,21.20
2017-07-17T09:06:14.938Z,21.20
2017-07-17T09:08:41.729Z,20.70
2017-07-17T09:11:07.768Z,20.70
2017-07-17T09:13:33.797Z,20.70
2017-07-17T09:15:59.825Z,20.80
2017-07-17T09:18:25.855Z,21.10
2017-07-17T09:20:51.890Z,21.20
2017-07-17T09:23:17.922Z,21.30
2017-07-17T09:25:43.945Z,21.20
2017-07-17T09:28:09.973Z,21.10
2017-07-17T09:30:36.022Z,21.00
2017-07-17T09:33:02.053Z,20.90
2017-07-17T09:35:28.073Z,20.90
2017-07-17T09:37:54.852Z,21.30
2017-07-17T09:40:20.909Z,21.30
2017-07-17T09:42:47.667Z,21.80
2017-07-17T09:45:13.710Z,21.70
2017-07-17T09:47:39.720Z,22.10
2017-07-17T09:50:05.750Z,22.40
2017-07-17T09:52:31.756Z,22.70
2017-07-17T09:54:57.770Z,22.60
2017-07-17T09:57:23.787Z,22.60
2017-07-17T09:59:50.542Z,22.70
2017-07-17T10:04:44.398Z,23.10
2017-07-17T10:07:10.426Z,23.80
2017-07-17T10:09:36.457Z,24.50
2017-07-17T10:12:02.522Z,25.40
2017-07-17T10:14:28.537Z,25.50
2017-07-17T10:16:54.589Z,25.70
2017-07-17T10:19:20.614Z,26.50
2017-07-17T10:21:46.632Z,27.50
2017-07-17T10:24:13.393Z,29.90
2017-07-17T10:26:39.411Z,29.80
2017-07-17T10:29:05.453Z,30.60
2017-07-17T10:31:31.478Z,30.60
2017-07-17T10:33:58.267Z,29.40
2017-07-17T10:36:24.285Z,29.30
2017-07-17T10:38:50.321Z,28.60
2017-07-17T10:41:17.073Z,30.20
2017-07-17T10:43:43.109Z,30.20
2017-07-17T10:46:09.117Z,31.50
2017-07-17T10:48:35.138Z,32.70
2017-07-17T10:51:01.173Z,32.90
2017-07-17T10:53:27.218Z,32.00
2017-07-17T10:55:53.242Z,30.40
2017-07-17T10:58:19.246Z,30.00
2017-07-17T11:00:45.289Z,30.60
2017-07-17T11:03:11.325Z,31.10
2017-07-17T11:05:37.346Z,31.90
2017-07-17T11:08:04.098Z,31.70
2017-07-17T11:10:30.126Z,31.70
2017-07-17T11:12:56.186Z,30.70
2017-07-17T11:15:22.995Z,31.00
2017-07-17T11:17:49.762Z,31.30
2017-07-17T11:20:15.793Z,31.30
2017-07-17T11:22:41.818Z,31.40
2017-07-17T11:25:07.849Z,30.60
2017-07-17T11:27:34.613Z,29.80
2017-07-17T11:30:00.638Z,29.70
2017-07-17T11:32:26.707Z,30.40
2017-07-17T11:34:52.737Z,31.40
2017-07-17T11:37:18.776Z,32.50
2017-07-17T11:39:44.793Z,33.10
2017-07-17T11:42:10.819Z,33.80
2017-07-17T11:44:38.061Z,34.40
2017-07-17T11:57:13.411Z,35.20
2017-07-17T11:59:40.833Z,35.80
2017-07-17T12:02:11.312Z,35.80
2017-07-17T12:04:38.258Z,35.50
2017-07-17T12:07:04.922Z,35.80
2017-07-17T12:09:32.356Z,36.00
2017-07-17T12:11:58.460Z,35.60
2017-07-17T12:14:24.485Z,34.70
2017-07-17T12:16:50.498Z,34.20
2017-07-17T12:19:16.533Z,33.90
2017-07-17T12:21:42.568Z,34.20
2017-07-17T12:24:08.606Z,34.50
2017-07-17T12:26:34.634Z,34.30
2017-07-17T12:29:00.679Z,34.40
2017-07-17T12:31:26.703Z,34.50
2017-07-17T12:33:52.725Z,34.90
2017-07-17T12:36:18.761Z,34.90
2017-07-17T12:38:44.831Z,35.10
2017-07-17T12:41:10.885Z,34.90
2017-07-17T12:43:36.922Z,35.30
2017-07-17T12:46:02.970Z,35.40
2017-07-17T12:48:35.909Z,35.40
2017-07-17T12:51:01.942Z,35.40
2017-07-17T12:53:27.958Z,34.60
2017-07-17T12:55:54.737Z,33.30
2017-07-17T12:58:20.779Z,33.30
2017-07-17T13:00:46.822Z,32.80
2017-07-17T13:03:12.845Z,31.80
2017-07-17T13:05:38.865Z,31.00
2017-07-17T13:08:04.879Z,30.20
2017-07-17T13:10:30.905Z,30.00
2017-07-17T13:12:56.930Z,30.10
2017-07-17T13:15:22.946Z,29.90
2017-07-17T13:17:48.958Z,30.00
2017-07-17T13:20:15.026Z,29.60
2017-07-17T13:22:41.065Z,28.80
2017-07-17T13:25:07.109Z,29.00
2017-07-17T13:27:33.145Z,29.10
2017-07-17T13:29:59.174Z,29.60
2017-07-17T13:32:25.186Z,29.50
2017-07-17T13:34:51.225Z,30.20
2017-07-17T13:37:17.269Z,31.00
2017-07-17T13:39:43.297Z,31.00
2017-07-17T13:42:09.330Z,31.20
2017-07-17T13:44:35.370Z,31.60
2017-07-17T13:47:02.127Z,31.30
2017-07-17T13:49:28.158Z,31.40
2017-07-17T13:51:54.201Z,31.60
2017-07-17T13:54:20.963Z,31.40
2017-07-17T13:56:46.985Z,31.40
2017-07-17T13:59:13.005Z,31.40
2017-07-17T14:01:39.213Z,30.60
2017-07-17T14:04:05.261Z,31.10
2017-07-17T14:06:32.034Z,32.50
2017-07-17T14:08:58.085Z,32.50
2017-07-17T14:11:24.101Z,32.70
2017-07-17T14:13:50.254Z,33.30
2017-07-17T14:16:16.281Z,33.80
2017-07-17T14:18:42.326Z,33.80
2017-07-17T14:21:08.388Z,34.00
2017-07-17T14:23:34.425Z,34.20
2017-07-17T14:26:00.445Z,34.20
2017-07-17T14:28:26.460Z,33.80
2017-07-17T14:30:52.532Z,32.30
2017-07-17T14:33:25.568Z,31.20
2017-07-17T14:35:51.680Z,30.30
2017-07-17T14:38:17.723Z,30.10
2017-07-17T14:40:43.777Z,29.50
2017-07-17T14:43:09.798Z,29.00
2017-07-17T14:45:35.841Z,28.60
2017-07-17T14:48:01.886Z,28.50
2017-07-17T14:50:27.918Z,28.20
2017-07-17T14:52:54.726Z,27.50
2017-07-17T14:55:20.773Z,27.50
2017-07-17T14:57:46.808Z,27.20
2017-07-17T15:00:12.907Z,27.10
2017-07-17T15:02:38.946Z,28.10
2017-07-17T15:05:04.966Z,28.10
2017-07-17T15:07:31.015Z,28.00
2017-07-17T15:09:57.057Z,27.70
2017-07-17T15:12:23.125Z,28.00
2017-07-17T15:14:49.894Z,27.40
2017-07-17T15:17:15.953Z,27.40
2017-07-17T15:19:41.981Z,26.80
2017-07-17T15:22:08.023Z,26.50
2017-07-17T15:24:34.065Z,26.80
2017-07-17T15:27:00.863Z,26.30
2017-07-17T15:29:26.905Z,26.20
2017-07-17T15:31:52.946Z,26.40
2017-07-17T15:34:19.003Z,27.30
2017-07-17T15:36:45.035Z,28.60
2017-07-17T15:39:11.079Z,29.80
2017-07-17T15:41:37.132Z,30.80
2017-07-17T15:44:03.167Z,31.90
2017-07-17T15:46:29.201Z,32.30
2017-07-17T15:48:55.250Z,31.30
2017-07-17T15:51:21.275Z,30.40
2017-07-17T15:53:47.321Z,30.70
2017-07-17T15:56:13.362Z,31.10
2017-07-17T15:58:39.429Z,31.50
2017-07-17T16:01:05.509Z,31.10
2017-07-17T16:03:31.567Z,30.60
2017-07-17T16:05:57.593Z,29.70
2017-07-17T16:08:23.622Z,29.10
2017-07-17T16:10:49.650Z,28.30
2017-07-17T16:13:16.429Z,27.70
2017-07-17T16:15:42.464Z,27.70
2017-07-17T16:18:08.494Z,28.00
2017-07-17T16:20:34.508Z,28.80
2017-07-17T16:23:00.526Z,29.50
2017-07-17T16:25:27.278Z,29.90
2017-07-17T16:27:53.316Z,29.90
2017-07-17T16:30:19.331Z,29.00
2017-07-17T16:32:45.369Z,28.10
2017-07-17T16:35:11.378Z,27.10
2017-07-17T16:37:38.181Z,27.90
2017-07-17T16:40:04.196Z,27.90
2017-07-17T16:42:30.236Z,28.70
2017-07-17T16:44:56.262Z,29.20
2017-07-17T16:47:22.265Z,28.90
2017-07-17T16:49:48.285Z,28.30
2017-07-17T16:52:14.328Z,27.50
2017-07-17T16:54:40.351Z,26.80
2017-07-17T16:57:06.358Z,26.20
2017-07-17T16:59:32.374Z,25.80
2017-07-17T17:01:58.377Z,25.30
2017-07-17T17:04:24.398Z,24.90
2017-07-17T17:06:50.414Z,24.80
2017-07-17T17:09:16.478Z,24.70
2017-07-17T17:11:42.518Z,24.40
2017-07-17T17:14:08.548Z,24.10
2017-07-17T17:16:34.578Z,23.80
2017-07-17T17:19:00.637Z,23.70
2017-07-17T17:21:26.662Z,23.60
2017-07-17T17:23:53.449Z,23.30
2017-07-17T17:26:19.474Z,23.30
2017-07-17T17:28:45.525Z,23.00
2017-07-17T17:31:11.535Z,22.80
2017-07-17T17:33:37.593Z,22.60
2017-07-17T17:36:03.637Z,22.60
2017-07-17T17:38:29.687Z,22.40
2017-07-17T17:40:55.767Z,22.20
2017-07-17T17:43:21.820Z,22.00
2017-07-17T17:45:47.857Z,21.90
2017-07-17T17:48:14.653Z,21.70
2017-07-17T17:50:40.689Z,21.60
2017-07-17T17:53:07.238Z,21.50
2017-07-17T17:55:33.279Z,21.40
2017-07-17T17:57:59.299Z,21.30
2017-07-17T18:00:25.342Z,21.20
2017-07-17T18:02:52.137Z,21.10
2017-07-17T18:05:18.171Z,21.00
2017-07-17T18:07:44.195Z,21.00
2017-07-17T18:10:10.224Z,20.90
2017-07-17T18:12:36.268Z,20.70
2017-07-17T18:15:02.323Z,20.70
2017-07-17T18:17:29.126Z,20.60
2017-07-17T18:19:55.953Z,20.50
2017-07-17T18:22:21.974Z,20.50
2017-07-17T18:24:47.994Z,20.50
2017-07-17T18:27:14.753Z,20.30
2017-07-17T18:29:40.785Z,20.20
2017-07-17T18:32:06.818Z,20.20
2017-07-17T18:34:32.858Z,20.20
2017-07-17T18:36:58.897Z,20.00
2017-07-17T18:39:24.924Z,19.90
2017-07-17T18:41:50.968Z,19.80
2017-07-17T18:44:17.836Z,19.70
2017-07-17T18:46:43.876Z,19.70
2017-07-17T18:49:09.917Z,19.70
2017-07-17T18:51:35.981Z,19.60
2017-07-17T18:54:02.023Z,19.60
2017-07-17T18:56:28.086Z,19.50
2017-07-17T18:58:55.697Z,19.40
2017-07-17T19:01:21.725Z,19.30
2017-07-17T19:03:47.772Z,19.40
2017-07-17T19:06:13.825Z,19.40
2017-07-17T19:08:39.920Z,19.40
2017-07-17T19:11:06.685Z,19.30
2017-07-17T19:13:32.741Z,19.30
2017-07-17T19:15:59.514Z,19.20
2017-07-17T19:18:25.555Z,19.10
2017-07-17T19:20:51.599Z,19.00
2017-07-17T19:23:18.381Z,18.80
2017-07-17T19:25:44.422Z,18.80
2017-07-17T19:28:10.511Z,18.70
2017-07-17T19:30:36.570Z,18.80
2017-07-17T19:33:02.613Z,18.70
2017-07-17T19:35:28.673Z,18.60
2017-07-17T19:37:54.697Z,18.50
2017-07-17T19:40:20.727Z,18.40
2017-07-17T19:42:46.792Z,18.40
2017-07-17T19:45:19.871Z,18.30
2017-07-17T19:47:46.654Z,18.20
2017-07-17T19:50:12.678Z,18.20
2017-07-17T19:52:38.725Z,18.20
2017-07-17T19:55:04.770Z,18.10
2017-07-17T19:57:30.822Z,18.00
2017-07-17T19:59:57.605Z,18.00
2017-07-17T20:02:24.239Z,18.00
2017-07-17T20:04:50.405Z,17.90
2017-07-17T20:07:16.433Z,17.90
2017-07-17T20:09:42.458Z,17.80
2017-07-17T20:12:08.485Z,17.80
2017-07-17T20:14:34.527Z,17.70
2017-07-17T20:17:01.290Z,17.50
2017-07-17T20:19:27.325Z,17.50
2017-07-17T20:21:53.346Z,17.50
2017-07-17T20:24:19.389Z,17.50
2017-07-17T20:26:45.437Z,17.40
2017-07-17T20:29:11.445Z,17.50
2017-07-17T20:31:37.509Z,17.50
2017-07-17T20:34:03.554Z,17.40
2017-07-17T20:36:29.590Z,17.30
2017-07-17T20:38:55.710Z,17.30
2017-07-17T20:41:21.841Z,17.30
2017-07-17T20:43:48.784Z,17.10
2017-07-17T20:46:14.858Z,17.10
2017-07-17T20:48:40.904Z,17.10
2017-07-17T20:51:06.922Z,17.10
2017-07-17T20:53:32.953Z,17.10
2017-07-17T20:55:58.965Z,17.10
2017-07-17T20:58:24.987Z,17.00
2017-07-17T21:00:51.023Z,16.90
2017-07-17T21:03:17.072Z,16.90
2017-07-17T21:05:43.098Z,16.90
2017-07-17T21:08:09.134Z,16.90
2017-07-17T21:10:35.142Z,16.90
2017-07-17T21:13:01.182Z,16.80
2017-07-17T21:15:27.198Z,16.80
2017-07-17T21:17:53.218Z,16.70
2017-07-17T21:20:19.247Z,16.70
2017-07-17T21:22:45.281Z,16.60
2017-07-17T21:25:12.055Z,16.60
2017-07-17T21:27:38.114Z,16.60
2017-07-17T21:30:04.145Z,16.60
2017-07-17T21:32:30.937Z,16.60
2017-07-17T21:34:56.963Z,16.50
2017-07-17T21:37:22.994Z,16.50
2017-07-17T21:39:49.750Z,16.50
2017-07-17T21:42:15.787Z,16.40
2017-07-17T21:44:41.825Z,16.40
2017-07-17T21:47:07.866Z,16.40
2017-07-17T21:49:33.877Z,16.40
2017-07-17T21:51:59.893Z,16.30
2017-07-17T21:54:25.932Z,16.20
2017-07-17T21:56:51.968Z,16.20
2017-07-17T21:59:17.991Z,16.10
2017-07-17T22:01:44.013Z,16.00
2017-07-17T22:04:10.065Z,16.00
2017-07-17T22:06:36.102Z,16.00
2017-07-17T22:09:02.866Z,16.10
2017-07-17T22:11:35.958Z,16.10
2017-07-17T22:14:01.996Z,16.00
2017-07-17T22:16:35.062Z,15.90
2017-07-17T22:19:01.124Z,15.90
2017-07-17T22:21:27.150Z,15.90
2017-07-17T22:23:53.176Z,15.90
2017-07-17T22:26:19.199Z,15.90
2017-07-17T22:28:45.222Z,15.90
2017-07-17T22:31:11.228Z,15.80
2017-07-17T22:33:37.259Z,15.70
2017-07-17T22:36:04.003Z,15.70
2017-07-17T22:38:30.040Z,15.70
2017-07-17T22:40:56.066Z,15.70
2017-07-17T22:43:22.084Z,15.60
2017-07-17T22:45:48.085Z,15.60
2017-07-17T22:48:14.092Z,15.60
2017-07-17T22:50:40.126Z,15.60
2017-07-17T22:53:06.884Z,15.60
2017-07-17T22:55:32.909Z,15.60
2017-07-17T22:57:58.929Z,15.60
2017-07-17T23:00:24.977Z,15.60
2017-07-17T23:02:50.984Z,15.60
2017-07-17T23:05:17.750Z,15.60
2017-07-17T23:07:43.765Z,15.50
2017-07-17T23:10:09.798Z,15.50
2017-07-17T23:12:35.818Z,15.50
2017-07-17T23:15:01.883Z,15.60
2017-07-17T23:17:27.893Z,15.60
2017-07-17T23:19:53.941Z,15.60
2017-07-17T23:22:19.950Z,15.60
2017-07-17T23:24:45.977Z,15.60
2017-07-17T23:27:12.009Z,15.60
2017-07-17T23:29:38.034Z,15.60
2017-07-17T23:32:04.046Z,15.70
2017-07-17T23:34:30.074Z,15.70
2017-07-17T23:36:56.106Z,15.60
2017-07-17T23:39:22.134Z,15.50
2017-07-17T23:41:48.897Z,15.50
2017-07-17T23:44:14.939Z,15.50
2017-07-17T23:46:41.716Z,15.40
2017-07-17T23:49:07.729Z,15.40
2017-07-17T23:51:33.765Z,15.40
2017-07-17T23:53:59.805Z,15.40
2017-07-17T23:56:26.578Z,15.30
2017-07-17T23:58:52.601Z,15.30
